Weather History for St. George, UT

Change the Weather History Date:

Friday, August 15, 2014

  Actual Average Record
Temperature  
Mean Temperature 86 °F -  
Max Temperature 98 °F 98 °F 109 °F (1962)
Min Temperature 73 °F 67 °F 55 °F (1938)
Cooling Degree Days 20    
Growing Degree Days 36 (Base 50)    
Moisture  
Dew Point 50 °F    
Average Humidity 32    
Maximum Humidity 53    
Minimum Humidity 14    
Precipitation  
Precipitation 0.00 in - - ()
Sea Level Pressure  
Sea Level Pressure 30.03 in    
Wind  
Wind Speed 7 mph (South)    
Max Wind Speed 15 mph    
Max Gust Speed 23 mph    
Visibility 10 miles    
Events      
Averages and records for this station are not official NWS values.
T = Trace of Precipitation, MM = Missing Value Source: NWS Daily Summary

Daily Weather History Graph

Daily Weather History Graph

Search for Another Location

Airport:

Trip Planner

Search our weather history database for the weather conditions in past years. The results will help you decide how hot, cold, wet, or windy it might be!

Date:

Astronomy

Aug. 15, 2014 Rise Set
Actual Time 6:51 AM MDT 8:25 PM MDT
Civil Twilight 6:23 AM MDT 8:53 PM MDT
Nautical Twilight 5:50 AM MDT 9:26 PM MDT
Astronomical Twilight 5:14 AM MDT 10:01 PM MDT
Moon 11:40 PM MDT (8/15) 12:29 PM MDT (8/15)
Length of Visible Light 14h 30m
Length of Day
13h 34m
Waning Gibbous, 68% of the Moon is Illuminated
Aug 15
Waning Gibbous
Aug 17
Last Quarter
Aug 25
New
Sep 2
First Quarter
Sep 8
Full

Hourly Weather History & Observations

Time (MDT) Temp. Heat Index Dew Point Humidity Pressure Visibility Wind Dir Wind Speed Gust Speed Precip Events Conditions
12:15 AM 82.4 °F 82.5 °F 59.0 °F 45% 30.01 in 10.0 mi East 8.1 mph - N/A   Clear
12:35 AM 80.6 °F 81.1 °F 59.0 °F 48% 30.01 in 10.0 mi East 9.2 mph - N/A   Clear
12:55 AM 80.6 °F 81.1 °F 59.0 °F 48% 30.01 in 10.0 mi East 8.1 mph - N/A   Clear
1:15 AM 80.6 °F 80.8 °F 57.2 °F 45% 30.01 in 10.0 mi East 10.4 mph - N/A   Clear
1:35 AM 80.6 °F 80.8 °F 57.2 °F 45% 30.01 in 10.0 mi East 5.8 mph - N/A   Clear
1:55 AM 78.8 °F - 57.2 °F 47% 30.01 in 10.0 mi East 5.8 mph - N/A   Clear
2:15 AM 78.8 °F - 57.2 °F 47% 30.01 in 10.0 mi ESE 5.8 mph - N/A   Clear
2:35 AM 78.8 °F - 57.2 °F 47% 30.01 in 10.0 mi ESE 5.8 mph - N/A   Clear
2:55 AM 78.8 °F - 57.2 °F 47% 30.02 in 10.0 mi ENE 3.5 mph - N/A   Clear
3:15 AM 80.6 °F 80.8 °F 57.2 °F 45% 30.02 in 10.0 mi East 6.9 mph - N/A   Clear
3:35 AM 78.8 °F - 57.2 °F 47% 30.01 in 10.0 mi East 5.8 mph - N/A   Clear
3:55 AM 78.8 °F - 57.2 °F 47% 30.01 in 10.0 mi East 6.9 mph - N/A   Clear
4:15 AM 77.0 °F - 57.2 °F 50% 30.02 in 10.0 mi ESE 10.4 mph - N/A   Clear
4:35 AM 77.0 °F - 57.2 °F 50% 30.03 in 10.0 mi ESE 10.4 mph - N/A   Clear
4:55 AM 77.0 °F - 57.2 °F 50% 30.03 in 10.0 mi ESE 11.5 mph - N/A   Clear
5:15 AM 75.2 °F - 57.2 °F 53% 30.03 in 10.0 mi ESE 8.1 mph - N/A   Clear
5:35 AM 75.2 °F - 57.2 °F 53% 30.04 in 10.0 mi ESE 5.8 mph - N/A   Clear
5:55 AM 75.2 °F - 57.2 °F 53% 30.04 in 10.0 mi East 5.8 mph - N/A   Clear
6:15 AM 75.2 °F - 55.4 °F 50% 30.04 in 10.0 mi East 6.9 mph - N/A   Clear
6:35 AM 73.4 °F - 55.4 °F 53% 30.05 in 10.0 mi East 6.9 mph - N/A   Clear
6:55 AM 73.4 °F - 55.4 °F 53% 30.06 in 10.0 mi SE 4.6 mph - N/A   Clear
7:15 AM 73.4 °F - 55.4 °F 53% 30.06 in 10.0 mi SE 4.6 mph - N/A   Clear
7:35 AM 75.2 °F - 55.4 °F 50% 30.07 in 10.0 mi East 8.1 mph - N/A   Clear
7:55 AM 77.0 °F - 57.2 °F 50% 30.08 in 10.0 mi East 6.9 mph - N/A   Clear
8:15 AM 78.8 °F - 57.2 °F 47% 30.08 in 10.0 mi East 8.1 mph - N/A   Clear
8:35 AM 80.6 °F 80.8 °F 57.2 °F 45% 30.08 in 10.0 mi East 8.1 mph - N/A   Clear
8:55 AM 80.6 °F 80.8 °F 57.2 °F 45% 30.09 in 10.0 mi SSE 3.5 mph - N/A   Clear
9:15 AM 82.4 °F 82.0 °F 57.2 °F 42% 30.09 in 10.0 mi East 8.1 mph - N/A   Clear
9:35 AM 84.2 °F 83.5 °F 57.2 °F 40% 30.09 in 10.0 mi NE 6.9 mph - N/A   Clear
9:55 AM 84.2 °F 83.5 °F 57.2 °F 40% 30.09 in 10.0 mi SE 3.5 mph - N/A   Clear
10:15 AM 84.2 °F 83.5 °F 57.2 °F 40% 30.09 in 10.0 mi Calm Calm - N/A   Clear
10:35 AM 87.8 °F 86.5 °F 57.2 °F 35% 30.09 in 10.0 mi Calm Calm - N/A   Clear
10:55 AM 87.8 °F 86.5 °F 57.2 °F 35% 30.09 in 10.0 mi Calm Calm - N/A   Clear
11:15 AM 89.6 °F 87.7 °F 55.4 °F 31% 30.08 in 10.0 mi Calm Calm - N/A   Clear
11:35 AM 89.6 °F 87.7 °F 55.4 °F 31% 30.08 in 10.0 mi NNW 9.2 mph - N/A   Clear
11:55 AM 89.6 °F 87.7 °F 55.4 °F 31% 30.08 in 10.0 mi WNW 4.6 mph - N/A   Clear
12:15 PM 91.4 °F 89.4 °F 55.4 °F 29% 30.08 in 10.0 mi NNW 8.1 mph - N/A   Clear
12:35 PM 91.4 °F 89.1 °F 53.6 °F 28% 30.07 in 10.0 mi WNW 3.5 mph - N/A   Clear
12:55 PM 91.4 °F 89.1 °F 53.6 °F 28% 30.06 in 10.0 mi WNW 4.6 mph - N/A   Clear
1:15 PM 93.2 °F 90.8 °F 53.6 °F 26% 30.06 in 10.0 mi West 8.1 mph - N/A   Clear
1:35 PM 93.2 °F - 51.8 °F 24% 30.05 in 10.0 mi WNW 3.5 mph - N/A   Clear
1:55 PM 93.2 °F - 51.8 °F 24% 30.04 in 10.0 mi SSW 5.8 mph - N/A   Scattered Clouds
2:15 PM 96.8 °F - 51.8 °F 22% 30.03 in 10.0 mi West 10.4 mph - N/A   Mostly Cloudy
2:35 PM 95.0 °F - 50.0 °F 22% 30.03 in 10.0 mi SW 6.9 mph - N/A   Partly Cloudy
2:55 PM 96.8 °F - 50.0 °F 20% 30.02 in 10.0 mi West 10.4 mph - N/A   Clear
3:15 PM 96.8 °F - 50.0 °F 20% 30.01 in 10.0 mi WSW 4.6 mph 23.0 mph N/A   Clear
3:35 PM 96.8 °F - 50.0 °F 20% 30.00 in 10.0 mi SW 15.0 mph 18.4 mph N/A   Clear
3:55 PM 96.8 °F - 48.2 °F 19% 30.00 in 10.0 mi West 6.9 mph - N/A   Clear
4:15 PM 96.8 °F - 48.2 °F 19% 29.99 in 10.0 mi SW 3.5 mph - N/A   Clear
4:35 PM 96.8 °F - 48.2 °F 19% 29.99 in 10.0 mi WNW 13.8 mph 18.4 mph N/A   Clear
4:55 PM 96.8 °F - 46.4 °F 18% 29.98 in 10.0 mi West 12.7 mph - N/A   Clear
5:15 PM 96.8 °F - 44.6 °F 17% 29.98 in 10.0 mi West 10.4 mph 16.1 mph N/A   Clear
5:35 PM 98.6 °F - 42.8 °F 15% 29.97 in 10.0 mi West 12.7 mph 21.9 mph N/A   Clear
5:55 PM 96.8 °F - 42.8 °F 16% 29.97 in 10.0 mi West 11.5 mph - N/A   Clear
6:15 PM 98.6 °F - 42.8 °F 15% 29.97 in 10.0 mi West 13.8 mph - N/A   Clear
6:35 PM 96.8 °F - 41.0 °F 15% 29.97 in 10.0 mi West 10.4 mph - N/A   Clear
6:55 PM 96.8 °F - 41.0 °F 15% 29.97 in 10.0 mi West 10.4 mph 17.3 mph N/A   Clear
7:15 PM 96.8 °F - 41.0 °F 15% 29.96 in 10.0 mi West 13.8 mph - N/A   Clear
7:35 PM 96.8 °F - 41.0 °F 15% 29.97 in 10.0 mi West 13.8 mph 17.3 mph N/A   Clear
7:55 PM 95.0 °F - 39.2 °F 14% 29.97 in 10.0 mi West 12.7 mph - N/A   Clear
8:15 PM 93.2 °F - 39.2 °F 15% 29.97 in 10.0 mi West 10.4 mph - N/A   Clear
8:35 PM 93.2 °F - 37.4 °F 14% 29.98 in 10.0 mi West 10.4 mph - N/A   Clear
8:55 PM 91.4 °F - 37.4 °F 15% 29.98 in 10.0 mi West 9.2 mph - N/A   Clear
9:15 PM 91.4 °F - 35.6 °F 14% 29.99 in 10.0 mi West 6.9 mph - N/A   Clear
9:35 PM 89.6 °F - 35.6 °F 15% 30.00 in 10.0 mi West 6.9 mph - N/A   Clear
9:55 PM 89.6 °F - 33.8 °F 14% 30.01 in 10.0 mi WSW 4.6 mph - N/A   Clear
10:15 PM 86.0 °F - 33.8 °F 15% 30.01 in 10.0 mi South 5.8 mph - N/A   Clear
10:35 PM 80.6 °F - 33.8 °F 18% 30.02 in 10.0 mi SE 5.8 mph - N/A   Clear
11:15 PM 82.4 °F - 33.8 °F 17% 30.03 in 10.0 mi ESE 5.8 mph - N/A   Clear
11:35 PM 82.4 °F - 33.8 °F 17% 30.02 in 10.0 mi SE 3.5 mph - N/A   Clear
11:55 PM 80.6 °F - 33.8 °F 18% 30.03 in 10.0 mi SSE 3.5 mph - N/A   Clear